Time;durP1;ratioP1;P1;durP2;ratioP2;P2;SDS_P1;SDS_P2;PMS_P1;PMS_P2;Temp;Humidity;BMP_temperature;BMP_pressure;BME280_temperature;BME280_humidity;BME280_pressure;Samples;Min_cycle;Max_cycle;Signal;HPM_P1;HPM_P2
2022/01/19 00:01:03;;;;;;;3.67;2.60;;;;;;;;;;5093934;28;20197;-44
2022/01/19 00:03:29;;;;;;;3.45;2.88;;;;;;;;;;5094997;28;20197;-45
2022/01/19 00:05:56;;;;;;;5.28;3.35;;;;;;;;;;5103935;28;20189;-44
2022/01/19 00:08:22;;;;;;;5.10;2.70;;;;;;;;;;5099009;28;20273;-44
2022/01/19 00:10:49;;;;;;;4.20;2.90;;;;;;;;;;5104125;28;20170;-44
2022/01/19 00:13:15;;;;;;;3.95;3.15;;;;;;;;;;5091249;28;20174;-44
2022/01/19 00:15:41;;;;;;;3.42;2.70;;;;;;;;;;5092820;28;20170;-44
2022/01/19 00:18:08;;;;;;;3.20;2.90;;;;;;;;;;5101915;28;20633;-44
2022/01/19 00:20:34;;;;;;;3.92;2.80;;;;;;;;;;5104370;28;20482;-44
2022/01/19 00:23:01;;;;;;;3.65;2.92;;;;;;;;;;5100768;28;20197;-44
2022/01/19 00:25:27;;;;;;;4.72;2.83;;;;;;;;;;5104046;28;20197;-44
2022/01/19 00:27:54;;;;;;;4.38;2.90;;;;;;;;;;5101945;28;20266;-44
2022/01/19 00:30:20;;;;;;;4.05;2.58;;;;;;;;;;5100477;28;20181;-44
2022/01/19 00:32:46;;;;;;;3.58;2.50;;;;;;;;;;5105492;28;20190;-44
2022/01/19 00:35:12;;;;;;;3.50;2.95;;;;;;;;;;5100330;28;20473;-44
2022/01/19 00:37:39;;;;;;;2.90;2.58;;;;;;;;;;5094191;28;20331;-44
2022/01/19 00:40:06;;;;;;;3.53;2.80;;;;;;;;;;5096859;28;20173;-44
2022/01/19 00:42:32;;;;;;;4.82;2.70;;;;;;;;;;5092400;28;20196;-44
2022/01/19 00:44:58;;;;;;;3.15;2.72;;;;;;;;;;5103958;28;20192;-44
2022/01/19 00:47:24;;;;;;;3.47;2.38;;;;;;;;;;5098112;28;20425;-44
2022/01/19 00:49:51;;;;;;;3.55;2.30;;;;;;;;;;5104700;28;20208;-44
2022/01/19 00:52:17;;;;;;;3.95;2.45;;;;;;;;;;5099276;28;20414;-44
2022/01/19 00:54:43;;;;;;;3.05;2.30;;;;;;;;;;5097360;28;20572;-44
2022/01/19 00:57:10;;;;;;;2.90;2.60;;;;;;;;;;5107382;28;20177;-44
2022/01/19 00:59:36;;;;;;;3.22;2.30;;;;;;;;;;5106691;28;20189;-44
2022/01/19 01:02:02;;;;;;;2.40;2.20;;;;;;;;;;5095007;28;20215;-44
2022/01/19 01:04:29;;;;;;;3.00;2.50;;;;;;;;;;5107032;28;20264;-44
2022/01/19 01:06:55;;;;;;;2.72;2.50;;;;;;;;;;5107307;28;20201;-44
2022/01/19 01:09:21;;;;;;;2.95;2.33;;;;;;;;;;5107639;28;20197;-44
2022/01/19 01:11:58;;;;;;;2.50;2.17;;;;;;;;;;5104918;28;20217;-44
2022/01/19 01:19:58;;;;;;;2.85;1.98;;;;;;;;;;5111888;28;20631;-45
2022/01/19 01:22:24;;;;;;;2.47;2.28;;;;;;;;;;5109886;28;20276;-45
2022/01/19 01:24:50;;;;;;;2.60;2.20;;;;;;;;;;5098078;28;20185;-45
2022/01/19 01:27:16;;;;;;;2.67;2.10;;;;;;;;;;5106943;28;20189;-44
2022/01/19 01:29:42;;;;;;;3.47;2.10;;;;;;;;;;5105177;28;20216;-44
2022/01/19 01:32:08;;;;;;;2.45;2.20;;;;;;;;;;5097443;28;20181;-44
2022/01/19 01:34:35;;;;;;;2.17;1.90;;;;;;;;;;5105774;28;20181;-45
2022/01/19 01:37:01;;;;;;;3.72;2.40;;;;;;;;;;5098670;28;20556;-45
2022/01/19 01:39:27;;;;;;;2.63;2.30;;;;;;;;;;5082734;28;20185;-44
2022/01/19 01:41:53;;;;;;;2.60;2.00;;;;;;;;;;5102053;28;20567;-44
2022/01/19 01:44:19;;;;;;;2.10;1.90;;;;;;;;;;5106739;28;20184;-44
2022/01/19 01:46:54;;;;;;;1.90;1.80;;;;;;;;;;5093623;28;20196;-44
2022/01/19 01:49:27;;;;;;;2.08;1.90;;;;;;;;;;5102793;28;20205;-44
2022/01/19 01:54:40;;;;;;;2.30;2.10;;;;;;;;;;5102970;28;20193;-45
2022/01/19 01:57:06;;;;;;;2.22;1.90;;;;;;;;;;5102819;28;20291;-44
2022/01/19 01:59:35;;;;;;;2.10;1.90;;;;;;;;;;5096048;28;20290;-44
2022/01/19 02:02:01;;;;;;;2.28;2.05;;;;;;;;;;5093632;28;20209;-44
2022/01/19 02:04:30;;;;;;;1.83;1.73;;;;;;;;;;5102915;28;20182;-44
2022/01/19 02:09:41;;;;;;;2.45;1.90;;;;;;;;;;5100106;28;20216;-44
2022/01/19 02:23:24;;;;;;;2.08;1.77;;;;;;;;;;5101929;28;20209;-44
2022/01/19 02:25:52;;;;;;;2.58;1.63;;;;;;;;;;5100146;28;20181;-44
2022/01/19 02:42:05;;;;;;;1.70;1.60;;;;;;;;;;5096180;28;20507;-44
2022/01/19 02:49:47;;;;;;;1.60;1.50;;;;;;;;;;5102788;28;20216;-44
2022/01/19 02:52:13;;;;;;;1.67;1.50;;;;;;;;;;5096812;28;20181;-45
2022/01/19 02:54:39;;;;;;;1.70;1.50;;;;;;;;;;5100568;28;20443;-45
2022/01/19 02:57:09;;;;;;;1.63;1.52;;;;;;;;;;5090122;28;20226;-44
2022/01/19 03:10:40;;;;;;;1.42;1.33;;;;;;;;;;5109409;28;20179;-44
2022/01/19 03:13:06;;;;;;;1.33;1.23;;;;;;;;;;5103301;28;20756;-44
2022/01/19 03:15:32;;;;;;;1.50;1.40;;;;;;;;;;5097379;28;20493;-44
2022/01/19 03:17:59;;;;;;;1.63;1.40;;;;;;;;;;5097711;28;20214;-44
2022/01/19 03:20:27;;;;;;;1.38;1.27;;;;;;;;;;5102145;28;20549;-44
2022/01/19 03:25:19;;;;;;;1.38;1.27;;;;;;;;;;5095555;28;20185;-44
2022/01/19 03:27:47;;;;;;;1.52;1.42;;;;;;;;;;5102142;28;20182;-44
2022/01/19 03:30:14;;;;;;;1.23;1.15;;;;;;;;;;5106703;28;20232;-44
2022/01/19 03:32:40;;;;;;;1.50;1.40;;;;;;;;;;5091125;28;20505;-44
2022/01/19 03:35:06;;;;;;;1.10;1.10;;;;;;;;;;5104352;28;20475;-44
2022/01/19 03:37:32;;;;;;;1.20;1.15;;;;;;;;;;5102061;28;20181;-44
2022/01/19 03:39:58;;;;;;;1.42;1.33;;;;;;;;;;5107827;28;20181;-44
2022/01/19 03:42:24;;;;;;;1.33;1.23;;;;;;;;;;5098851;28;20185;-44
2022/01/19 03:44:50;;;;;;;1.30;1.20;;;;;;;;;;5100526;28;20178;-44
2022/01/19 03:47:17;;;;;;;1.25;1.23;;;;;;;;;;5092642;28;20238;-44
2022/01/19 03:49:44;;;;;;;1.58;1.42;;;;;;;;;;5105335;28;20469;-45
2022/01/19 03:52:09;;;;;;;1.30;1.20;;;;;;;;;;5091930;28;20614;-44
2022/01/19 03:54:37;;;;;;;1.30;1.20;;;;;;;;;;5095277;28;20178;-44
2022/01/19 03:57:03;;;;;;;1.10;1.10;;;;;;;;;;5104040;28;20248;-44
2022/01/19 03:59:29;;;;;;;1.30;1.20;;;;;;;;;;5100696;28;20196;-44
2022/01/19 04:01:57;;;;;;;1.00;1.00;;;;;;;;;;5091888;28;20206;-44
2022/01/19 04:07:08;;;;;;;1.10;1.05;;;;;;;;;;5102375;28;20568;-44
2022/01/19 04:09:38;;;;;;;1.25;1.15;;;;;;;;;;5104720;28;20203;-45
2022/01/19 04:12:06;;;;;;;1.08;1.08;;;;;;;;;;5092579;28;20189;-44
2022/01/19 04:14:32;;;;;;;1.20;1.05;;;;;;;;;;5099187;28;20201;-44
2022/01/19 04:16:59;;;;;;;1.17;1.17;;;;;;;;;;5107463;28;20637;-44
2022/01/19 04:19:48;;;;;;;1.17;1.10;;;;;;;;;;5104608;28;20459;-44
2022/01/19 04:22:14;;;;;;;1.00;1.00;;;;;;;;;;5092605;28;20228;-44
2022/01/19 04:24:40;;;;;;;1.27;1.17;;;;;;;;;;5103873;28;20488;-44
2022/01/19 04:29:54;;;;;;;2.08;1.15;;;;;;;;;;5114295;28;20214;-44
2022/01/19 04:32:27;;;;;;;1.05;1.05;;;;;;;;;;5103361;28;20189;-44
2022/01/19 04:34:54;;;;;;;1.23;1.13;;;;;;;;;;5102175;28;20177;-44
2022/01/19 04:37:24;;;;;;;1.35;1.25;;;;;;;;;;5107209;28;20280;-44
2022/01/19 05:04:23;;;;;;;2.15;1.33;;;;;;;;;;5109158;28;20192;-44
2022/01/19 05:07:02;;;;;;;0.90;0.90;;;;;;;;;;5095078;28;20202;-44
2022/01/19 05:14:45;;;;;;;1.20;1.10;;;;;;;;;;5098857;28;20265;-44
2022/01/19 05:17:11;;;;;;;1.50;1.05;;;;;;;;;;5094916;28;20186;-44
2022/01/19 05:19:37;;;;;;;9.27;2.78;;;;;;;;;;5096914;28;20182;-44
2022/01/19 05:22:03;;;;;;;18.02;4.53;;;;;;;;;;5105144;28;20567;-44
2022/01/19 05:24:29;;;;;;;15.10;4.32;;;;;;;;;;5100642;28;20192;-44
2022/01/19 05:26:55;;;;;;;15.35;4.60;;;;;;;;;;5097410;28;20200;-44
2022/01/19 05:29:21;;;;;;;20.27;5.22;;;;;;;;;;5101721;28;20209;-44
2022/01/19 05:31:47;;;;;;;19.48;5.38;;;;;;;;;;5104031;28;20248;-44
2022/01/19 05:34:13;;;;;;;20.20;4.90;;;;;;;;;;5106389;28;20617;-44
2022/01/19 05:36:39;;;;;;;18.85;5.63;;;;;;;;;;5101603;28;20184;-44
2022/01/19 05:39:05;;;;;;;21.70;5.40;;;;;;;;;;5106790;28;20169;-44
2022/01/19 05:41:34;;;;;;;22.45;5.85;;;;;;;;;;5099516;28;20193;-44
2022/01/19 05:44:01;;;;;;;20.08;5.75;;;;;;;;;;5103543;28;20189;-44
2022/01/19 05:46:27;;;;;;;20.50;6.70;;;;;;;;;;5102602;28;20196;-44
2022/01/19 05:48:53;;;;;;;25.27;7.00;;;;;;;;;;5103837;28;20209;-44
2022/01/19 05:51:19;;;;;;;28.98;7.30;;;;;;;;;;5102790;28;20184;-44
2022/01/19 05:53:45;;;;;;;28.33;8.30;;;;;;;;;;5102779;28;20177;-44
2022/01/19 05:56:11;;;;;;;31.73;7.90;;;;;;;;;;5104274;28;20645;-44
2022/01/19 05:58:37;;;;;;;29.63;8.05;;;;;;;;;;5103165;28;20193;-44
2022/01/19 06:01:03;;;;;;;31.33;7.85;;;;;;;;;;5102840;28;20178;-44
2022/01/19 06:03:29;;;;;;;30.85;8.68;;;;;;;;;;5102466;28;20182;-45
2022/01/19 06:05:55;;;;;;;27.00;8.15;;;;;;;;;;5093740;28;20208;-44
2022/01/19 06:10:54;;;;;;;27.30;8.05;;;;;;;;;;5106625;28;20563;-44
2022/01/19 06:13:21;;;;;;;27.20;8.35;;;;;;;;;;5107408;28;20272;-44
2022/01/19 06:15:47;;;;;;;28.58;7.97;;;;;;;;;;5107819;28;20183;-44
2022/01/19 06:18:14;;;;;;;21.65;7.25;;;;;;;;;;5102901;28;20191;-44
2022/01/19 06:20:40;;;;;;;20.85;7.20;;;;;;;;;;5101618;28;20182;-44
2022/01/19 06:23:07;;;;;;;24.52;7.63;;;;;;;;;;5097427;28;20204;-45
2022/01/19 06:25:33;;;;;;;22.15;7.47;;;;;;;;;;5093056;28;20193;-45
2022/01/19 06:27:59;;;;;;;20.92;7.70;;;;;;;;;;5098457;28;20189;-45
2022/01/19 06:30:25;;;;;;;20.33;6.50;;;;;;;;;;5105638;28;20177;-45
2022/01/19 06:32:51;;;;;;;21.02;7.15;;;;;;;;;;5101193;28;20233;-45
2022/01/19 06:35:18;;;;;;;21.35;7.40;;;;;;;;;;5098445;28;20260;-45
2022/01/19 06:37:44;;;;;;;24.75;6.93;;;;;;;;;;5102920;28;20177;-45
2022/01/19 06:40:10;;;;;;;18.00;6.60;;;;;;;;;;5105995;28;20432;-45
2022/01/19 06:42:37;;;;;;;20.27;6.82;;;;;;;;;;5098288;28;20177;-45
2022/01/19 06:45:03;;;;;;;15.88;5.90;;;;;;;;;;5099594;28;20552;-46
2022/01/19 06:47:29;;;;;;;18.50;5.80;;;;;;;;;;5100878;28;20191;-45
2022/01/19 06:49:55;;;;;;;20.17;6.57;;;;;;;;;;5100527;28;20571;-45
2022/01/19 06:52:22;;;;;;;16.95;6.00;;;;;;;;;;5091088;28;20185;-45
2022/01/19 06:54:47;;;;;;;16.70;5.57;;;;;;;;;;5092740;28;20166;-45
2022/01/19 06:57:13;;;;;;;15.40;5.80;;;;;;;;;;5093000;28;20516;-44
2022/01/19 06:59:39;;;;;;;14.65;5.55;;;;;;;;;;5093662;28;20252;-44
2022/01/19 07:02:06;;;;;;;16.45;5.80;;;;;;;;;;5086347;28;20224;-44
2022/01/19 07:04:32;;;;;;;16.42;5.25;;;;;;;;;;5086271;28;20825;-44
2022/01/19 07:06:58;;;;;;;15.32;4.95;;;;;;;;;;5088923;28;20204;-44
2022/01/19 07:09:24;;;;;;;19.92;5.30;;;;;;;;;;5096505;28;20216;-44
2022/01/19 07:11:52;;;;;;;15.60;5.88;;;;;;;;;;5101367;28;20249;-44
2022/01/19 07:14:18;;;;;;;12.10;4.75;;;;;;;;;;5096240;28;20538;-44
2022/01/19 07:16:44;;;;;;;14.75;4.75;;;;;;;;;;5085625;28;20550;-45
2022/01/19 07:19:13;;;;;;;13.00;4.90;;;;;;;;;;5109512;28;20219;-45
2022/01/19 07:21:39;;;;;;;15.55;5.57;;;;;;;;;;5104630;28;20184;-44
2022/01/19 07:24:05;;;;;;;13.07;4.55;;;;;;;;;;5107729;28;20186;-44
2022/01/19 07:26:31;;;;;;;14.27;5.22;;;;;;;;;;5092177;28;20246;-44
2022/01/19 07:28:57;;;;;;;13.07;4.72;;;;;;;;;;5098495;28;20218;-44
2022/01/19 07:31:23;;;;;;;12.57;4.55;;;;;;;;;;5102276;28;20454;-44
2022/01/19 07:33:49;;;;;;;11.45;4.78;;;;;;;;;;5102969;28;20220;-44
2022/01/19 07:36:16;;;;;;;14.70;4.70;;;;;;;;;;5100483;28;20204;-44
2022/01/19 07:38:42;;;;;;;8.65;3.83;;;;;;;;;;5099548;28;20176;-44
2022/01/19 07:41:09;;;;;;;11.73;4.47;;;;;;;;;;5103945;28;20217;-44
2022/01/19 07:43:37;;;;;;;7.03;4.00;;;;;;;;;;5102319;28;20617;-44
2022/01/19 07:46:03;;;;;;;10.95;4.03;;;;;;;;;;5099623;28;20576;-44
2022/01/19 07:48:29;;;;;;;9.27;4.13;;;;;;;;;;5099883;28;20209;-44
2022/01/19 07:50:55;;;;;;;11.60;4.15;;;;;;;;;;5109909;28;20602;-44
2022/01/19 07:53:22;;;;;;;8.70;3.47;;;;;;;;;;5102962;28;20177;-44
2022/01/19 07:55:49;;;;;;;10.48;4.20;;;;;;;;;;5088258;28;20210;-44
2022/01/19 07:58:15;;;;;;;14.60;4.78;;;;;;;;;;5096578;28;20178;-44
2022/01/19 08:00:42;;;;;;;7.20;3.85;;;;;;;;;;5079625;28;20191;-44
2022/01/19 08:03:09;;;;;;;8.68;3.92;;;;;;;;;;5096228;28;20178;-44
2022/01/19 08:05:35;;;;;;;8.93;3.33;;;;;;;;;;5099096;28;20220;-44
2022/01/19 08:08:04;;;;;;;6.85;3.35;;;;;;;;;;5109876;28;20207;-44
2022/01/19 08:10:31;;;;;;;8.50;3.47;;;;;;;;;;5104271;28;20563;-44
2022/01/19 08:13:00;;;;;;;8.27;3.33;;;;;;;;;;5112993;28;20232;-44
2022/01/19 08:15:26;;;;;;;7.93;3.58;;;;;;;;;;5102871;28;20177;-45
2022/01/19 08:17:52;;;;;;;8.68;3.25;;;;;;;;;;5105812;28;20188;-44
2022/01/19 08:20:18;;;;;;;5.95;3.10;;;;;;;;;;5104086;28;20237;-44
2022/01/19 08:22:45;;;;;;;8.27;3.45;;;;;;;;;;5104512;28;20190;-44
2022/01/19 08:25:11;;;;;;;6.15;3.30;;;;;;;;;;5105730;28;20181;-44
2022/01/19 08:27:37;;;;;;;7.53;3.35;;;;;;;;;;5098523;28;20226;-44
2022/01/19 08:30:08;;;;;;;7.68;3.30;;;;;;;;;;5107988;28;20197;-44
2022/01/19 08:32:35;;;;;;;4.78;2.78;;;;;;;;;;5106260;28;20202;-44
2022/01/19 08:35:02;;;;;;;6.10;3.00;;;;;;;;;;5102848;28;20211;-44
2022/01/19 08:37:28;;;;;;;7.10;2.63;;;;;;;;;;5097358;28;20266;-44
2022/01/19 08:39:54;;;;;;;10.73;3.33;;;;;;;;;;5103978;28;20189;-44
2022/01/19 08:42:21;;;;;;;8.57;2.83;;;;;;;;;;5088952;28;20186;-44
2022/01/19 08:44:47;;;;;;;7.13;2.85;;;;;;;;;;5107003;28;20181;-44
2022/01/19 08:47:13;;;;;;;6.68;2.78;;;;;;;;;;5099685;28;20541;-44
2022/01/19 08:49:39;;;;;;;7.22;2.75;;;;;;;;;;5101080;28;20246;-44
2022/01/19 08:52:05;;;;;;;7.93;3.03;;;;;;;;;;5102886;28;20201;-44
2022/01/19 08:54:32;;;;;;;7.32;2.47;;;;;;;;;;5109909;28;20192;-43
2022/01/19 08:57:00;;;;;;;6.47;2.50;;;;;;;;;;5106836;28;20184;-44
2022/01/19 08:59:26;;;;;;;5.85;2.78;;;;;;;;;;5098935;28;20457;-44
2022/01/19 09:01:52;;;;;;;5.25;2.40;;;;;;;;;;5099422;28;20482;-44
2022/01/19 09:04:18;;;;;;;8.55;2.70;;;;;;;;;;5093719;28;20190;-44
2022/01/19 09:06:45;;;;;;;10.75;2.85;;;;;;;;;;5095923;28;20194;-44
2022/01/19 09:09:11;;;;;;;5.63;2.30;;;;;;;;;;5095744;28;20197;-44
2022/01/19 09:11:37;;;;;;;4.15;2.38;;;;;;;;;;5095617;28;20439;-44
2022/01/19 09:14:06;;;;;;;6.13;1.98;;;;;;;;;;5093621;28;20178;-44
2022/01/19 09:16:33;;;;;;;6.43;2.38;;;;;;;;;;5080430;28;20183;-44
2022/01/19 09:18:59;;;;;;;4.70;2.08;;;;;;;;;;5089209;28;20240;-44
2022/01/19 09:21:25;;;;;;;7.95;2.40;;;;;;;;;;5091299;28;20192;-44
2022/01/19 09:23:51;;;;;;;4.50;1.90;;;;;;;;;;5091621;28;20312;-44
2022/01/19 09:26:18;;;;;;;5.15;2.00;;;;;;;;;;5094835;28;20235;-44
2022/01/19 09:28:44;;;;;;;9.20;2.38;;;;;;;;;;5091238;28;20206;-44
2022/01/19 09:31:12;;;;;;;8.68;2.13;;;;;;;;;;5098881;28;20585;-44
2022/01/19 09:33:41;;;;;;;4.78;2.30;;;;;;;;;;5089510;28;20181;-44
2022/01/19 09:36:28;;;;;;;8.25;2.30;;;;;;;;;;5092075;28;20173;-44
2022/01/19 09:38:53;;;;;;;4.90;2.00;;;;;;;;;;5089341;28;20280;-44
2022/01/19 09:41:20;;;;;;;3.10;1.80;;;;;;;;;;5090272;28;20190;-44
2022/01/19 09:43:46;;;;;;;5.45;1.98;;;;;;;;;;5087936;28;20181;-44
2022/01/19 09:46:12;;;;;;;6.15;2.00;;;;;;;;;;5087407;28;20543;-44
2022/01/19 09:48:40;;;;;;;4.28;2.00;;;;;;;;;;5086957;28;20610;-44
2022/01/19 09:51:06;;;;;;;7.38;1.75;;;;;;;;;;5088865;28;20193;-44
2022/01/19 09:53:32;;;;;;;5.72;2.10;;;;;;;;;;5102589;28;20440;-44
2022/01/19 09:55:58;;;;;;;7.10;2.13;;;;;;;;;;5092291;28;21708;-44
2022/01/19 09:58:24;;;;;;;6.00;2.72;;;;;;;;;;5086966;28;20189;-44
2022/01/19 10:00:51;;;;;;;3.25;2.10;;;;;;;;;;5087895;28;20193;-44
2022/01/19 10:03:23;;;;;;;5.07;2.10;;;;;;;;;;5087990;28;20263;-44
2022/01/19 10:06:03;;;;;;;4.22;2.20;;;;;;;;;;5088033;28;20750;-44
2022/01/19 10:08:30;;;;;;;5.10;2.03;;;;;;;;;;5088153;28;20206;-44
2022/01/19 10:11:13;;;;;;;3.55;1.92;;;;;;;;;;5091801;28;20431;-44
2022/01/19 10:17:10;;;;;;;5.13;2.00;;;;;;;;;;5088389;28;20614;-44
2022/01/19 10:19:37;;;;;;;4.60;1.75;;;;;;;;;;5068096;28;20185;-44
2022/01/19 10:22:12;;;;;;;4.07;1.83;;;;;;;;;;5089564;28;20947;-44
2022/01/19 10:24:50;;;;;;;2.58;1.80;;;;;;;;;;5091732;28;20235;-44
2022/01/19 10:27:19;;;;;;;3.25;1.85;;;;;;;;;;5090159;28;20206;-44
2022/01/19 10:29:46;;;;;;;5.65;1.80;;;;;;;;;;5086570;28;20240;-44
2022/01/19 10:32:13;;;;;;;5.35;1.83;;;;;;;;;;5087350;28;20661;-44
2022/01/19 10:34:39;;;;;;;5.30;1.80;;;;;;;;;;5101424;28;20188;-44
2022/01/19 10:37:05;;;;;;;3.55;1.98;;;;;;;;;;5105013;28;20185;-44
2022/01/19 10:39:42;;;;;;;3.20;1.58;;;;;;;;;;5104787;28;20189;-44
2022/01/19 10:42:09;;;;;;;4.05;1.50;;;;;;;;;;5081867;28;20238;-44
2022/01/19 10:44:43;;;;;;;3.67;1.52;;;;;;;;;;5103074;28;20218;-44
2022/01/19 10:47:15;;;;;;;4.70;1.52;;;;;;;;;;5088022;28;20197;-44
2022/01/19 10:49:48;;;;;;;4.40;1.67;;;;;;;;;;5105306;28;20212;-44
2022/01/19 10:52:26;;;;;;;6.32;1.67;;;;;;;;;;5080067;28;20196;-44
2022/01/19 10:54:52;;;;;;;5.82;1.98;;;;;;;;;;5100869;28;20503;-44
2022/01/19 10:57:19;;;;;;;4.03;1.75;;;;;;;;;;5100320;28;20201;-44
2022/01/19 10:59:45;;;;;;;2.83;1.60;;;;;;;;;;5106102;28;20181;-44
2022/01/19 11:02:12;;;;;;;3.38;1.75;;;;;;;;;;5100227;28;20181;-44
2022/01/19 11:04:39;;;;;;;4.35;1.58;;;;;;;;;;5107108;28;20192;-44
2022/01/19 11:07:05;;;;;;;4.00;1.90;;;;;;;;;;5099777;28;20210;-45
2022/01/19 11:09:32;;;;;;;3.88;1.67;;;;;;;;;;5100287;28;20206;-44
2022/01/19 11:12:10;;;;;;;4.72;1.70;;;;;;;;;;5105283;28;20269;-44
2022/01/19 11:14:36;;;;;;;4.13;1.95;;;;;;;;;;5097375;28;20170;-44
2022/01/19 11:17:02;;;;;;;46.30;12.10;;;;;;;;;;5107411;28;20189;-44
2022/01/19 11:19:28;;;;;;;158.00;33.28;;;;;;;;;;5096212;28;20595;-44
2022/01/19 11:21:54;;;;;;;199.98;41.10;;;;;;;;;;5103367;28;20188;-44
2022/01/19 11:24:27;;;;;;;178.70;40.58;;;;;;;;;;5102137;28;20193;-44
2022/01/19 11:26:55;;;;;;;175.73;44.10;;;;;;;;;;5111818;28;20533;-44
2022/01/19 11:29:22;;;;;;;208.77;53.10;;;;;;;;;;5102257;28;20251;-44
2022/01/19 11:31:49;;;;;;;220.00;60.60;;;;;;;;;;5098545;28;20206;-44
2022/01/19 11:34:16;;;;;;;211.57;67.95;;;;;;;;;;5097059;28;20194;-44
2022/01/19 11:36:43;;;;;;;231.35;69.13;;;;;;;;;;5096358;28;20178;-44
2022/01/19 11:39:14;;;;;;;199.52;70.53;;;;;;;;;;5104591;28;20185;-44
2022/01/19 11:41:54;;;;;;;189.90;65.80;;;;;;;;;;5096401;28;20231;-44
2022/01/19 11:44:32;;;;;;;182.77;64.68;;;;;;;;;;5095629;28;20182;-44
2022/01/19 11:46:59;;;;;;;178.65;63.63;;;;;;;;;;5096830;28;20186;-44
2022/01/19 11:49:48;;;;;;;173.90;60.72;;;;;;;;;;5089193;28;20205;-44
2022/01/19 11:52:16;;;;;;;155.00;57.88;;;;;;;;;;5093115;28;20179;-44
2022/01/19 11:54:41;;;;;;;150.38;56.33;;;;;;;;;;5095484;28;20243;-45
2022/01/19 11:57:09;;;;;;;160.70;55.95;;;;;;;;;;5108219;28;20486;-44
2022/01/19 11:59:38;;;;;;;127.03;51.00;;;;;;;;;;5098905;28;20493;-44
2022/01/19 12:02:36;;;;;;;130.85;50.58;;;;;;;;;;5100667;28;20691;-44
2022/01/19 12:05:22;;;;;;;127.78;49.17;;;;;;;;;;5100321;28;20193;-44
2022/01/19 12:07:52;;;;;;;113.43;44.13;;;;;;;;;;5086386;28;20181;-44
2022/01/19 12:10:21;;;;;;;114.70;43.72;;;;;;;;;;5084489;28;20213;-44
2022/01/19 12:13:09;;;;;;;102.32;41.75;;;;;;;;;;5095917;28;20212;-44
2022/01/19 12:15:51;;;;;;;98.65;39.72;;;;;;;;;;5097527;28;20201;-44
2022/01/19 12:18:37;;;;;;;93.13;37.65;;;;;;;;;;5095897;28;20202;-44
2022/01/19 12:21:03;;;;;;;89.18;36.95;;;;;;;;;;5100929;28;20170;-44
2022/01/19 12:23:30;;;;;;;71.40;31.55;;;;;;;;;;5094958;28;20197;-44
2022/01/19 12:25:57;;;;;;;63.40;27.45;;;;;;;;;;5103633;28;20188;-44
2022/01/19 12:28:41;;;;;;;60.80;25.98;;;;;;;;;;5100118;28;20199;-44
2022/01/19 12:31:22;;;;;;;60.55;25.35;;;;;;;;;;5085941;28;20204;-44
2022/01/19 12:34:19;;;;;;;66.07;25.35;;;;;;;;;;5090697;28;20190;-44
2022/01/19 12:36:54;;;;;;;48.95;23.20;;;;;;;;;;5086114;28;20196;-44
2022/01/19 12:39:26;;;;;;;54.90;23.27;;;;;;;;;;5098287;28;20230;-44
2022/01/19 12:42:38;;;;;;;51.67;22.08;;;;;;;;;;5096505;28;20260;-44
2022/01/19 12:45:14;;;;;;;51.00;21.75;;;;;;;;;;5039519;28;20183;-44
2022/01/19 12:47:45;;;;;;;46.35;20.15;;;;;;;;;;5096179;28;20201;-44
2022/01/19 12:50:11;;;;;;;44.13;19.23;;;;;;;;;;5102934;28;20205;-44
2022/01/19 12:52:43;;;;;;;42.40;18.40;;;;;;;;;;5095722;28;20186;-44
2022/01/19 12:55:14;;;;;;;37.85;18.92;;;;;;;;;;5096085;28;20186;-44
2022/01/19 12:57:40;;;;;;;39.30;17.25;;;;;;;;;;5096365;28;20610;-44
2022/01/19 13:00:08;;;;;;;42.58;17.67;;;;;;;;;;5106080;28;20600;-44
2022/01/19 13:02:34;;;;;;;43.53;18.52;;;;;;;;;;5096468;28;20311;-44
2022/01/19 13:05:07;;;;;;;41.05;17.27;;;;;;;;;;5091578;28;20189;-44
2022/01/19 13:07:37;;;;;;;34.33;17.30;;;;;;;;;;5079619;28;20190;-44
2022/01/19 13:10:29;;;;;;;35.47;17.08;;;;;;;;;;5076742;28;20206;-44
2022/01/19 13:13:04;;;;;;;37.97;16.38;;;;;;;;;;5086381;28;20174;-44
2022/01/19 13:15:43;;;;;;;44.08;16.55;;;;;;;;;;5094477;28;20173;-44
2022/01/19 13:18:09;;;;;;;55.30;20.25;;;;;;;;;;5091504;28;20506;-44
2022/01/19 13:20:35;;;;;;;48.10;19.00;;;;;;;;;;5075676;28;20170;-44
2022/01/19 13:23:04;;;;;;;50.13;18.77;;;;;;;;;;5075559;28;20171;-45
2022/01/19 13:25:32;;;;;;;47.05;18.27;;;;;;;;;;5076201;28;20230;-45
2022/01/19 13:28:00;;;;;;;47.60;19.33;;;;;;;;;;5081185;28;20188;-45
2022/01/19 13:30:28;;;;;;;57.33;20.92;;;;;;;;;;5096531;28;20205;-44
2022/01/19 13:32:55;;;;;;;69.30;22.15;;;;;;;;;;5091949;28;20215;-45
2022/01/19 13:35:21;;;;;;;60.45;21.10;;;;;;;;;;5090820;28;20291;-44
2022/01/19 13:37:51;;;;;;;63.70;21.63;;;;;;;;;;5096580;28;20813;-44
2022/01/19 13:40:30;;;;;;;66.72;21.40;;;;;;;;;;5096395;28;20273;-44
2022/01/19 13:42:57;;;;;;;73.38;21.48;;;;;;;;;;5096310;28;20166;-44
2022/01/19 13:45:35;;;;;;;65.15;20.48;;;;;;;;;;5095424;28;20236;-44
2022/01/19 13:48:08;;;;;;;68.95;21.27;;;;;;;;;;5095653;28;20178;-45
2022/01/19 13:50:36;;;;;;;65.47;21.05;;;;;;;;;;5108177;28;20207;-44
2022/01/19 13:53:02;;;;;;;58.58;20.25;;;;;;;;;;5116088;28;20556;-45
2022/01/19 13:55:28;;;;;;;61.28;19.95;;;;;;;;;;5116205;28;20169;-44
2022/01/19 13:58:09;;;;;;;58.28;19.48;;;;;;;;;;5106999;28;20178;-45
2022/01/19 14:00:36;;;;;;;55.28;19.40;;;;;;;;;;5095746;28;20181;-44
2022/01/19 14:03:04;;;;;;;45.55;18.83;;;;;;;;;;5105866;28;20177;-44
2022/01/19 14:05:39;;;;;;;48.72;17.02;;;;;;;;;;5102508;28;20245;-45
2022/01/19 14:08:05;;;;;;;48.28;17.60;;;;;;;;;;5107314;28;20234;-44
2022/01/19 14:10:39;;;;;;;42.40;16.73;;;;;;;;;;5112964;28;20205;-44
2022/01/19 14:13:20;;;;;;;48.22;16.65;;;;;;;;;;5094261;28;20170;-45
2022/01/19 14:15:46;;;;;;;51.95;17.83;;;;;;;;;;5087593;28;20181;-45
2022/01/19 14:18:12;;;;;;;49.97;17.63;;;;;;;;;;5090782;28;20186;-45
2022/01/19 14:20:40;;;;;;;44.92;17.17;;;;;;;;;;5088731;28;20465;-45
2022/01/19 14:23:13;;;;;;;44.28;16.10;;;;;;;;;;5087834;28;20181;-45
2022/01/19 14:25:39;;;;;;;46.22;16.05;;;;;;;;;;5087900;28;20254;-45
2022/01/19 14:28:15;;;;;;;44.05;15.52;;;;;;;;;;5090833;28;20226;-45
2022/01/19 14:30:42;;;;;;;39.03;15.43;;;;;;;;;;5103317;28;20583;-45
2022/01/19 14:33:09;;;;;;;34.05;14.77;;;;;;;;;;5107092;28;20185;-45
2022/01/19 14:35:46;;;;;;;34.20;13.82;;;;;;;;;;5090515;28;20269;-45
2022/01/19 14:38:27;;;;;;;34.35;13.60;;;;;;;;;;5100062;28;20271;-45
2022/01/19 14:40:53;;;;;;;31.83;12.30;;;;;;;;;;5102960;28;20216;-45
2022/01/19 14:43:21;;;;;;;42.00;14.38;;;;;;;;;;5093681;28;20196;-45
2022/01/19 14:45:53;;;;;;;31.88;12.90;;;;;;;;;;5097697;28;20189;-45
2022/01/19 14:48:20;;;;;;;31.98;12.65;;;;;;;;;;5088378;28;20191;-45
2022/01/19 14:50:46;;;;;;;36.60;12.95;;;;;;;;;;5086256;28;20212;-49
2022/01/19 14:53:13;;;;;;;34.40;13.00;;;;;;;;;;5087290;28;20236;-49
2022/01/19 14:55:40;;;;;;;30.33;11.50;;;;;;;;;;5087151;28;20212;-44
2022/01/19 14:58:07;;;;;;;31.73;12.45;;;;;;;;;;5090043;28;20178;-45
2022/01/19 15:00:35;;;;;;;31.95;12.27;;;;;;;;;;5102601;28;20229;-44
2022/01/19 15:03:02;;;;;;;32.92;11.88;;;;;;;;;;5100562;28;20191;-44
2022/01/19 15:05:32;;;;;;;33.92;11.93;;;;;;;;;;5084189;28;20206;-44
2022/01/19 15:07:58;;;;;;;24.92;11.00;;;;;;;;;;5086217;28;20197;-44
2022/01/19 15:10:25;;;;;;;27.90;10.57;;;;;;;;;;5086102;28;20248;-44
2022/01/19 15:12:53;;;;;;;27.92;12.05;;;;;;;;;;5086276;28;20204;-44
2022/01/19 15:15:21;;;;;;;35.63;12.10;;;;;;;;;;5085721;28;20174;-44
2022/01/19 15:17:47;;;;;;;29.40;10.95;;;;;;;;;;5087543;28;20186;-44
2022/01/19 15:20:13;;;;;;;25.85;10.93;;;;;;;;;;5086116;28;20189;-44
2022/01/19 15:22:39;;;;;;;25.20;10.15;;;;;;;;;;5086538;28;20694;-44
2022/01/19 15:25:05;;;;;;;26.17;9.88;;;;;;;;;;5085862;28;20192;-44
2022/01/19 15:27:32;;;;;;;25.40;9.85;;;;;;;;;;5086181;28;20205;-45
2022/01/19 15:29:58;;;;;;;23.40;10.15;;;;;;;;;;5102606;28;20197;-44
2022/01/19 15:32:24;;;;;;;23.98;9.88;;;;;;;;;;5088491;28;20621;-44
2022/01/19 15:34:50;;;;;;;26.25;9.38;;;;;;;;;;5086415;28;20177;-44
2022/01/19 15:37:16;;;;;;;22.52;10.25;;;;;;;;;;5086592;28;20201;-44
2022/01/19 15:39:46;;;;;;;22.30;8.88;;;;;;;;;;5086592;28;20596;-44
2022/01/19 15:42:14;;;;;;;18.77;9.27;;;;;;;;;;5097232;28;20447;-44
2022/01/19 15:44:40;;;;;;;18.90;8.20;;;;;;;;;;5085902;28;20303;-44
2022/01/19 15:47:06;;;;;;;20.17;8.50;;;;;;;;;;5086187;28;20571;-44
2022/01/19 15:49:32;;;;;;;18.33;8.05;;;;;;;;;;5086841;28;20279;-44
2022/01/19 15:51:58;;;;;;;21.48;8.73;;;;;;;;;;5086951;28;20194;-44
2022/01/19 15:54:24;;;;;;;19.48;8.23;;;;;;;;;;5085971;28;20178;-44
2022/01/19 15:56:51;;;;;;;18.05;7.90;;;;;;;;;;5085862;28;20455;-44
2022/01/19 15:59:17;;;;;;;19.77;8.48;;;;;;;;;;5095621;28;20290;-44
2022/01/19 16:01:43;;;;;;;18.90;8.00;;;;;;;;;;5090030;28;20180;-44
2022/01/19 16:04:09;;;;;;;16.83;7.60;;;;;;;;;;5068461;28;20560;-44
2022/01/19 16:06:42;;;;;;;12.90;7.00;;;;;;;;;;5086088;28;20204;-44
2022/01/19 16:09:08;;;;;;;15.93;6.68;;;;;;;;;;5089123;28;20685;-44
2022/01/19 16:11:34;;;;;;;17.88;7.53;;;;;;;;;;5095466;28;20612;-44
2022/01/19 16:14:00;;;;;;;14.35;6.72;;;;;;;;;;5087878;28;20174;-44